Time;durP1;ratioP1;P1;durP2;ratioP2;P2;SDS_P1;SDS_P2;PMS_P1;PMS_P2;Temp;Humidity;BMP_temperature;BMP_pressure;BME280_temperature;BME280_humidity;BME280_pressure;Samples;Min_cycle;Max_cycle;Signal;HPM_P1;HPM_P2
2023/11/11 00:01:57;;;;;;;6.70;5.60;;;8.20;90.60;;;;;;4994357;28;20026;-33
2023/11/11 00:04:23;;;;;;;7.28;5.70;;;8.20;90.60;;;;;;4994174;28;20030;-34
2023/11/11 00:06:49;;;;;;;8.45;5.20;;;8.20;90.90;;;;;;4992751;28;20486;-32
2023/11/11 00:09:16;;;;;;;8.38;6.00;;;8.20;90.60;;;;;;4992889;28;20103;-34
2023/11/11 00:11:43;;;;;;;6.97;5.80;;;8.10;90.60;;;;;;4994294;28;20026;-33
2023/11/11 00:14:09;;;;;;;6.53;5.88;;;8.10;90.60;;;;;;4994303;28;20490;-33
2023/11/11 00:16:35;;;;;;;9.15;6.20;;;8.10;90.60;;;;;;4993911;28;20027;-33
2023/11/11 00:19:01;;;;;;;9.52;6.03;;;8.10;90.60;;;;;;4993894;28;20057;-33
2023/11/11 00:21:27;;;;;;;9.15;7.07;;;8.10;90.70;;;;;;4994161;28;20030;-31
2023/11/11 00:23:56;;;;;;;8.82;6.72;;;8.10;90.70;;;;;;4993707;28;20109;-32
2023/11/11 00:26:22;;;;;;;8.20;6.35;;;8.10;90.70;;;;;;4993727;28;20018;-33
2023/11/11 00:28:48;;;;;;;12.45;7.43;;;8.00;90.70;;;;;;4993691;28;20046;-33
2023/11/11 00:31:13;;;;;;;10.10;7.45;;;8.00;90.70;;;;;;4993698;28;20105;-33
2023/11/11 00:33:39;;;;;;;8.48;6.47;;;8.00;90.70;;;;;;4993871;28;20406;-32
2023/11/11 00:36:06;;;;;;;10.05;7.05;;;8.00;90.70;;;;;;4993591;28;20029;-33
2023/11/11 00:38:32;;;;;;;9.82;6.90;;;8.00;90.70;;;;;;4993682;28;20433;-33
2023/11/11 00:40:58;;;;;;;11.23;6.70;;;7.90;90.70;;;;;;4993852;28;20361;-32
2023/11/11 00:43:23;;;;;;;8.38;6.35;;;7.90;90.70;;;;;;4993421;28;20419;-33
2023/11/11 00:45:49;;;;;;;8.18;6.93;;;7.90;90.70;;;;;;4993400;28;20023;-33
2023/11/11 00:48:15;;;;;;;10.10;7.18;;;7.90;90.80;;;;;;4993615;28;20443;-32
2023/11/11 00:50:41;;;;;;;7.40;6.60;;;7.90;90.80;;;;;;4993634;28;20023;-33
2023/11/11 00:53:06;;;;;;;8.05;6.57;;;7.80;90.80;;;;;;4993527;28;20026;-32
2023/11/11 00:55:32;;;;;;;8.02;6.45;;;7.80;90.80;;;;;;4993367;28;20038;-33
2023/11/11 00:57:58;;;;;;;10.60;6.22;;;7.80;90.80;;;;;;4993065;28;20405;-33
2023/11/11 01:00:23;;;;;;;8.52;6.50;;;7.80;90.80;;;;;;4993376;28;20386;-33
2023/11/11 01:02:54;;;;;;;7.93;6.18;;;7.80;90.80;;;;;;4993014;28;20026;-31
2023/11/11 01:05:20;;;;;;;11.82;7.22;;;7.70;90.80;;;;;;4993125;28;20022;-33
2023/11/11 01:07:45;;;;;;;8.65;5.95;;;7.70;90.90;;;;;;4993154;28;20022;-33
2023/11/11 01:10:11;;;;;;;8.38;6.00;;;7.70;90.90;;;;;;4992735;28;20387;-32
2023/11/11 01:12:38;;;;;;;8.60;6.32;;;7.70;90.90;;;;;;4993333;28;20018;-33
2023/11/11 01:15:22;;;;;;;8.40;6.15;;;7.70;90.90;;;;;;4992870;28;20028;-33
2023/11/11 01:17:48;;;;;;;8.20;5.32;;;7.70;90.90;;;;;;4992766;28;20023;-33
2023/11/11 01:20:13;;;;;;;9.00;5.72;;;7.70;90.90;;;;;;4992786;28;20085;-33
2023/11/11 01:22:39;;;;;;;10.07;5.90;;;7.70;90.90;;;;;;4992766;28;20058;-33
2023/11/11 01:25:07;;;;;;;8.25;5.88;;;7.70;90.90;;;;;;4992632;28;20026;-33
2023/11/11 01:27:35;;;;;;;7.22;5.75;;;7.70;90.90;;;;;;4992482;28;20052;-32
2023/11/11 01:30:01;;;;;;;12.40;6.05;;;7.70;90.90;;;;;;4992868;28;20262;-33
2023/11/11 01:32:26;;;;;;;7.63;5.60;;;7.70;90.80;;;;;;4992765;28;20026;-33
2023/11/11 01:34:52;;;;;;;6.90;5.57;;;7.70;90.90;;;;;;4992784;28;20030;-34
2023/11/11 01:37:18;;;;;;;6.03;5.00;;;7.70;90.80;;;;;;4992387;28;20022;-34
2023/11/11 01:39:44;;;;;;;7.20;5.45;;;7.70;90.80;;;;;;4993024;28;20030;-34
2023/11/11 01:42:11;;;;;;;9.27;5.45;;;7.80;90.80;;;;;;4992489;28;20101;-33
2023/11/11 01:44:37;;;;;;;6.65;4.90;;;7.90;90.80;;;;;;4992680;28;20467;-33
2023/11/11 01:47:06;;;;;;;7.43;4.60;;;7.90;90.70;;;;;;4992408;28;20015;-33
2023/11/11 01:49:32;;;;;;;6.38;4.28;;;7.90;90.70;;;;;;4992624;28;20026;-33
2023/11/11 01:51:58;;;;;;;6.32;4.32;;;7.90;90.60;;;;;;4992606;28;20536;-34
2023/11/11 01:54:23;;;;;;;6.60;3.70;;;7.90;90.60;;;;;;4992594;28;20026;-34
2023/11/11 01:56:51;;;;;;;5.22;3.38;;;7.90;90.60;;;;;;4991947;28;20033;-34
2023/11/11 01:59:17;;;;;;;5.75;3.60;;;8.00;90.60;;;;;;4992512;28;20018;-34
2023/11/11 02:01:45;;;;;;;4.57;3.40;;;8.00;90.60;;;;;;4991834;28;20125;-33
2023/11/11 02:04:11;;;;;;;5.00;3.58;;;8.00;90.50;;;;;;4990685;28;20064;-33
2023/11/11 02:06:37;;;;;;;4.75;3.50;;;8.10;90.50;;;;;;4992042;28;20486;-33
2023/11/11 02:09:04;;;;;;;6.10;3.20;;;8.00;90.40;;;;;;4992164;28;20030;-34
2023/11/11 02:11:29;;;;;;;6.03;3.20;;;8.00;90.40;;;;;;4992279;28;20026;-34
2023/11/11 02:13:55;;;;;;;5.55;3.05;;;8.00;90.40;;;;;;4992094;28;20085;-34
2023/11/11 02:16:21;;;;;;;4.00;3.10;;;8.00;90.40;;;;;;4992039;28;20446;-33
2023/11/11 02:18:47;;;;;;;7.72;3.55;;;8.00;90.40;;;;;;4992004;28;20031;-32
2023/11/11 02:21:13;;;;;;;5.03;3.15;;;8.00;90.30;;;;;;4992031;28;20509;-37
2023/11/11 02:23:38;;;;;;;4.57;2.92;;;8.00;90.30;;;;;;4991911;28;20033;-39
2023/11/11 02:26:05;;;;;;;5.65;3.10;;;8.00;90.30;;;;;;4991787;28;20034;-34
2023/11/11 02:28:30;;;;;;;3.70;2.63;;;8.10;90.30;;;;;;4991754;28;20043;-33
2023/11/11 02:30:56;;;;;;;3.22;2.50;;;8.10;90.30;;;;;;4992383;28;20410;-34
2023/11/11 02:33:24;;;;;;;3.55;2.25;;;8.10;90.30;;;;;;4996154;28;20018;-33
2023/11/11 02:35:50;;;;;;;4.47;2.30;;;8.10;90.20;;;;;;4995886;28;20406;-33
2023/11/11 02:38:15;;;;;;;3.85;2.00;;;8.00;90.20;;;;;;4995691;28;20022;-34
2023/11/11 02:40:41;;;;;;;5.95;1.90;;;8.00;90.20;;;;;;4995882;28;20018;-33
2023/11/11 02:43:07;;;;;;;3.88;1.80;;;8.00;90.20;;;;;;4995940;28;20529;-35
2023/11/11 02:45:33;;;;;;;2.38;1.30;;;8.00;90.10;;;;;;4995467;28;20434;-34
2023/11/11 02:48:03;;;;;;;3.90;1.90;;;8.00;90.10;;;;;;4995536;28;20085;-33
2023/11/11 02:50:28;;;;;;;5.13;1.88;;;8.00;90.00;;;;;;4995481;28;20505;-33
2023/11/11 02:52:54;;;;;;;3.63;1.83;;;7.90;89.90;;;;;;4995522;28;20022;-34
2023/11/11 02:55:20;;;;;;;2.67;1.73;;;7.90;90.00;;;;;;4995838;28;20018;-34
2023/11/11 02:57:46;;;;;;;2.88;1.70;;;7.90;89.90;;;;;;4995270;28;20027;-35
2023/11/11 03:00:12;;;;;;;3.08;1.45;;;7.80;89.90;;;;;;4995248;28;20045;-32
2023/11/11 03:02:39;;;;;;;4.88;1.80;;;7.80;89.90;;;;;;4995259;28;20521;-32
2023/11/11 03:05:06;;;;;;;3.65;1.75;;;7.80;89.90;;;;;;4995252;28;20019;-33
2023/11/11 03:07:34;;;;;;;2.83;1.55;;;7.80;89.90;;;;;;4995059;28;20022;-33
2023/11/11 03:10:05;;;;;;;4.45;1.60;;;7.80;89.90;;;;;;4994978;28;20026;-33
2023/11/11 03:12:35;;;;;;;9.07;2.00;;;7.80;89.90;;;;;;4995135;28;20159;-33
2023/11/11 03:15:01;;;;;;;4.43;1.70;;;7.80;89.90;;;;;;4995034;28;20489;-32
2023/11/11 03:17:30;;;;;;;5.43;1.75;;;7.90;89.90;;;;;;4994769;28;20018;-32
2023/11/11 03:19:57;;;;;;;3.17;1.30;;;7.90;90.00;;;;;;4994994;28;20027;-33
2023/11/11 03:22:23;;;;;;;3.00;0.98;;;7.90;90.00;;;;;;4994925;28;20026;-33
2023/11/11 03:24:49;;;;;;;1.00;0.90;;;7.90;90.00;;;;;;4994780;28;20022;-33
2023/11/11 03:27:15;;;;;;;4.63;1.33;;;7.80;90.10;;;;;;4994799;28;20053;-39
2023/11/11 03:29:40;;;;;;;1.65;0.70;;;7.70;90.20;;;;;;4994826;28;20069;-32
2023/11/11 03:32:07;;;;;;;2.80;0.73;;;7.70;90.20;;;;;;4994843;28;20034;-33
2023/11/11 03:34:33;;;;;;;1.55;0.40;;;7.70;90.30;;;;;;4994830;28;20025;-33
2023/11/11 03:36:58;;;;;;;1.13;0.50;;;7.60;90.30;;;;;;4994889;28;20232;-33
2023/11/11 03:39:25;;;;;;;1.10;0.60;;;7.60;90.30;;;;;;4994872;28;20072;-33
2023/11/11 03:41:51;;;;;;;2.33;0.70;;;7.60;90.60;;;;;;4994349;28;20030;-33
2023/11/11 03:44:16;;;;;;;2.50;0.77;;;7.50;90.40;;;;;;4994780;28;20042;-33
2023/11/11 03:46:42;;;;;;;2.90;0.68;;;7.50;90.40;;;;;;4994414;28;20177;-32
2023/11/11 03:49:08;;;;;;;1.88;0.60;;;7.50;90.40;;;;;;4994405;28;20072;-32
2023/11/11 03:51:34;;;;;;;1.10;0.70;;;7.40;90.80;;;;;;4994489;28;20029;-33
2023/11/11 03:53:59;;;;;;;0.90;0.60;;;7.40;90.60;;;;;;4994272;28;20034;-33
2023/11/11 03:56:25;;;;;;;2.08;0.65;;;7.40;90.60;;;;;;4994242;28;20026;-33
2023/11/11 03:58:51;;;;;;;3.05;0.70;;;7.30;90.70;;;;;;4994488;28;20157;-34
2023/11/11 04:01:17;;;;;;;1.95;0.60;;;7.30;90.70;;;;;;4994348;28;20037;-33
2023/11/11 04:03:43;;;;;;;1.88;0.60;;;7.30;90.80;;;;;;4994430;28;20444;-32
2023/11/11 04:06:12;;;;;;;2.38;0.52;;;7.30;91.10;;;;;;4994125;28;20077;-33
2023/11/11 04:08:39;;;;;;;1.45;0.70;;;7.30;90.80;;;;;;4994299;28;20050;-32
2023/11/11 04:11:07;;;;;;;2.03;0.55;;;7.30;90.80;;;;;;4994177;28;20023;-32
2023/11/11 04:13:40;;;;;;;1.27;0.60;;;7.30;90.80;;;;;;4994210;28;20049;-32
2023/11/11 04:16:09;;;;;;;2.78;0.80;;;7.40;90.90;;;;;;4993984;28;20109;-33
2023/11/11 04:18:36;;;;;;;2.30;0.60;;;7.40;90.80;;;;;;4994138;28;20030;-32
2023/11/11 04:21:02;;;;;;;1.95;0.80;;;7.40;90.80;;;;;;4994102;28;20422;-32
2023/11/11 04:23:28;;;;;;;2.85;0.80;;;7.40;90.80;;;;;;4993877;28;20362;-32
2023/11/11 04:25:58;;;;;;;1.10;0.90;;;7.40;90.80;;;;;;4993618;28;20022;-32
2023/11/11 04:28:25;;;;;;;3.00;1.00;;;7.40;90.80;;;;;;4993574;28;20044;-32
2023/11/11 04:30:51;;;;;;;2.55;1.08;;;7.40;90.80;;;;;;4993959;28;20022;-33
2023/11/11 04:33:17;;;;;;;5.50;1.20;;;7.40;90.90;;;;;;4993787;28;20390;-33
2023/11/11 04:35:43;;;;;;;3.30;0.88;;;7.40;90.90;;;;;;4993842;28;20105;-31
2023/11/11 04:38:09;;;;;;;1.65;0.82;;;7.40;90.90;;;;;;4993785;28;20069;-34
2023/11/11 04:40:38;;;;;;;3.00;0.90;;;7.50;90.90;;;;;;4993591;28;20026;-31
2023/11/11 04:43:03;;;;;;;2.95;0.95;;;7.50;90.90;;;;;;4993562;28;20035;-32
2023/11/11 04:45:30;;;;;;;2.20;0.88;;;7.60;91.20;;;;;;4993421;28;20437;-31
2023/11/11 04:47:56;;;;;;;3.58;0.98;;;7.60;90.80;;;;;;4993431;28;20018;-32
2023/11/11 04:50:22;;;;;;;8.13;1.00;;;7.60;90.80;;;;;;4993243;28;20382;-32
2023/11/11 04:52:48;;;;;;;3.95;1.23;;;7.70;90.80;;;;;;4993715;28;20488;-31
2023/11/11 04:55:13;;;;;;;1.25;1.00;;;7.70;90.80;;;;;;4992682;28;20077;-32
2023/11/11 04:57:39;;;;;;;2.22;1.00;;;7.70;90.80;;;;;;4993066;28;20038;-31
2023/11/11 05:00:09;;;;;;;3.10;1.20;;;7.70;90.70;;;;;;4993215;28;20053;-32
2023/11/11 05:02:39;;;;;;;1.75;1.20;;;7.70;90.70;;;;;;4993269;28;20030;-32
2023/11/11 05:05:10;;;;;;;5.15;1.23;;;7.70;90.70;;;;;;4993109;28;20027;-32
2023/11/11 05:07:38;;;;;;;6.03;1.67;;;7.70;90.70;;;;;;4992872;28;20027;-33
2023/11/11 05:10:06;;;;;;;2.17;1.23;;;7.70;90.70;;;;;;4992973;28;20023;-32
2023/11/11 05:12:35;;;;;;;3.45;1.50;;;7.70;90.80;;;;;;4993031;28;20028;-32
2023/11/11 05:15:13;;;;;;;2.78;1.10;;;7.70;90.80;;;;;;4993204;28;20022;-32
2023/11/11 05:17:44;;;;;;;2.65;1.00;;;7.70;90.80;;;;;;4992078;28;20026;-32
2023/11/11 05:20:10;;;;;;;2.72;1.20;;;7.70;90.80;;;;;;4992019;28;20023;-29
2023/11/11 05:22:37;;;;;;;1.60;1.02;;;7.70;90.80;;;;;;4992717;28;20172;-32
2023/11/11 05:25:04;;;;;;;2.33;1.25;;;7.70;90.80;;;;;;4992749;28;20428;-31
2023/11/11 05:27:30;;;;;;;1.52;1.00;;;7.70;90.80;;;;;;4992485;28;20545;-32
2023/11/11 05:29:56;;;;;;;1.67;0.80;;;7.70;90.80;;;;;;4992662;28;20018;-33
2023/11/11 05:32:22;;;;;;;2.50;0.90;;;7.70;90.70;;;;;;4992610;28;20081;-32
2023/11/11 05:34:47;;;;;;;0.98;0.70;;;7.70;90.80;;;;;;4992519;28;20026;-33
2023/11/11 05:37:13;;;;;;;2.70;0.80;;;7.70;90.80;;;;;;4992292;28;20540;-32
2023/11/11 05:39:38;;;;;;;1.08;0.60;;;7.70;90.70;;;;;;4992636;28;20530;-32
2023/11/11 05:42:04;;;;;;;1.75;0.50;;;7.70;90.70;;;;;;4992354;28;20101;-32
2023/11/11 05:44:30;;;;;;;2.33;0.68;;;7.70;90.70;;;;;;4992339;28;20034;-33
2023/11/11 05:46:55;;;;;;;3.35;1.13;;;7.60;90.70;;;;;;4992325;28;20018;-32
2023/11/11 05:49:21;;;;;;;1.38;0.80;;;7.60;90.80;;;;;;4992187;28;20030;-31
2023/11/11 05:51:46;;;;;;;3.30;0.85;;;7.60;90.80;;;;;;4992564;28;20101;-33
2023/11/11 05:54:12;;;;;;;2.25;0.70;;;7.50;90.80;;;;;;4992167;28;20077;-32
2023/11/11 05:56:42;;;;;;;2.42;0.90;;;7.50;90.80;;;;;;4992531;28;20126;-34
2023/11/11 05:59:07;;;;;;;2.67;0.70;;;7.50;90.80;;;;;;4992113;28;20041;-32
2023/11/11 06:01:33;;;;;;;0.82;0.60;;;7.50;90.90;;;;;;4992194;28;20026;-32
2023/11/11 06:03:58;;;;;;;2.35;0.93;;;7.50;90.90;;;;;;4992023;28;20034;-32
2023/11/11 06:06:24;;;;;;;1.55;0.65;;;7.50;90.90;;;;;;4991976;28;20019;-31
2023/11/11 06:08:50;;;;;;;3.42;1.38;;;7.60;90.90;;;;;;4991832;28;20077;-32
2023/11/11 06:11:16;;;;;;;2.80;0.80;;;7.60;90.80;;;;;;4992060;28;20069;-33
2023/11/11 06:13:42;;;;;;;2.15;1.00;;;7.50;90.80;;;;;;4991896;28;20030;-32
2023/11/11 06:16:09;;;;;;;2.40;0.90;;;7.50;90.80;;;;;;4992110;28;20027;-33
2023/11/11 06:18:35;;;;;;;2.92;1.05;;;7.50;90.90;;;;;;4991572;28;20022;-32
2023/11/11 06:21:00;;;;;;;1.80;0.93;;;7.50;90.90;;;;;;4991988;28;20032;-32
2023/11/11 06:23:26;;;;;;;1.00;0.70;;;7.50;91.00;;;;;;4990559;28;20386;-32
2023/11/11 06:25:51;;;;;;;1.02;0.60;;;7.50;91.00;;;;;;4991721;28;20093;-31
2023/11/11 06:28:17;;;;;;;1.75;0.98;;;7.50;90.90;;;;;;4991668;28;20081;-32
2023/11/11 06:30:43;;;;;;;1.38;0.60;;;7.50;90.90;;;;;;4992024;28;20110;-32
2023/11/11 06:33:08;;;;;;;1.23;0.63;;;7.40;90.80;;;;;;4991883;28;20110;-31
2023/11/11 06:35:34;;;;;;;0.80;0.63;;;7.50;90.90;;;;;;4992018;28;20034;-32
2023/11/11 06:38:00;;;;;;;1.55;1.00;;;7.50;90.80;;;;;;4991619;28;20045;-32
2023/11/11 06:40:27;;;;;;;1.50;0.82;;;7.50;90.70;;;;;;4991698;28;20030;-33
2023/11/11 06:42:55;;;;;;;1.58;0.70;;;7.50;90.70;;;;;;4990360;28;20026;-32
2023/11/11 06:45:21;;;;;;;0.65;0.50;;;7.50;90.60;;;;;;4991622;28;20085;-32
2023/11/11 06:47:48;;;;;;;1.02;0.70;;;7.50;90.60;;;;;;4991780;28;20030;-32
2023/11/11 06:50:17;;;;;;;1.38;0.60;;;7.50;90.60;;;;;;4991829;28;20014;-32
2023/11/11 06:52:43;;;;;;;2.28;0.98;;;7.50;90.50;;;;;;4991561;28;20023;-30
2023/11/11 06:55:10;;;;;;;1.67;0.80;;;7.50;90.50;;;;;;4992018;28;20427;-33
2023/11/11 06:57:37;;;;;;;1.52;0.80;;;7.50;90.50;;;;;;4990323;28;20030;-32
2023/11/11 07:00:04;;;;;;;1.33;0.85;;;7.50;90.50;;;;;;4991711;28;20019;-32
2023/11/11 07:02:31;;;;;;;2.70;0.90;;;7.50;90.50;;;;;;4991754;28;20445;-32
2023/11/11 07:04:57;;;;;;;3.55;1.40;;;7.50;90.50;;;;;;4991655;28;20475;-33
2023/11/11 07:07:24;;;;;;;2.42;0.93;;;7.50;90.50;;;;;;4991649;28;20027;-33
2023/11/11 07:09:51;;;;;;;2.63;1.23;;;7.50;90.50;;;;;;4991399;28;20046;-32
2023/11/11 07:12:19;;;;;;;3.00;1.25;;;7.50;90.60;;;;;;4991690;28;20026;-32
2023/11/11 07:14:45;;;;;;;1.92;1.00;;;7.50;90.60;;;;;;4991685;28;20097;-32
2023/11/11 07:17:11;;;;;;;2.20;1.00;;;7.50;90.60;;;;;;4991660;28;20034;-32
2023/11/11 07:19:37;;;;;;;1.75;1.05;;;7.40;90.60;;;;;;4995295;28;20022;-33
2023/11/11 07:22:03;;;;;;;3.38;1.13;;;7.50;90.60;;;;;;4995003;28;20026;-32
2023/11/11 07:24:29;;;;;;;1.63;1.35;;;7.50;90.60;;;;;;4993695;28;20042;-32
2023/11/11 07:26:54;;;;;;;3.10;1.00;;;7.50;90.60;;;;;;4994629;28;20387;-32
2023/11/11 07:29:24;;;;;;;2.45;1.10;;;7.40;90.60;;;;;;4995052;28;20022;-32
2023/11/11 07:31:50;;;;;;;0.98;0.88;;;7.40;90.60;;;;;;4994946;28;20064;-33
2023/11/11 07:34:16;;;;;;;2.50;0.88;;;7.40;90.60;;;;;;4994767;28;20023;-33
2023/11/11 07:36:43;;;;;;;1.40;0.70;;;7.40;90.60;;;;;;4994750;28;20077;-32
2023/11/11 07:39:09;;;;;;;2.40;0.70;;;7.30;90.50;;;;;;4994805;28;20462;-33
2023/11/11 07:41:34;;;;;;;1.70;0.70;;;7.30;90.60;;;;;;4994900;28;20026;-33
2023/11/11 07:44:04;;;;;;;0.80;0.70;;;7.30;90.60;;;;;;4994515;28;20031;-32
2023/11/11 07:46:32;;;;;;;1.23;0.60;;;7.20;90.50;;;;;;4994781;28;20057;-32
2023/11/11 07:49:01;;;;;;;0.95;0.55;;;7.20;90.50;;;;;;4994437;28;20433;-33
2023/11/11 07:51:26;;;;;;;1.73;0.52;;;7.20;90.40;;;;;;4995110;28;20018;-33
2023/11/11 07:53:52;;;;;;;1.35;0.50;;;7.20;90.40;;;;;;4994329;28;20030;-32
2023/11/11 07:56:18;;;;;;;0.60;0.47;;;7.20;90.40;;;;;;4994669;28;20081;-32
2023/11/11 07:58:47;;;;;;;1.10;0.60;;;7.20;90.40;;;;;;4994095;28;20058;-32
2023/11/11 08:01:13;;;;;;;1.00;0.70;;;7.20;90.40;;;;;;4994583;28;20026;-32
2023/11/11 08:03:38;;;;;;;2.65;0.60;;;7.20;90.30;;;;;;4994617;28;20104;-33
2023/11/11 08:06:05;;;;;;;0.85;0.80;;;7.30;90.30;;;;;;4994184;28;20022;-32
2023/11/11 08:08:31;;;;;;;1.75;1.13;;;7.30;90.30;;;;;;4993963;28;20033;-32
2023/11/11 08:10:57;;;;;;;1.42;0.80;;;7.40;90.30;;;;;;4993983;28;20027;-32
2023/11/11 08:13:23;;;;;;;1.08;0.68;;;7.40;90.30;;;;;;4994400;28;20081;-33
2023/11/11 08:15:49;;;;;;;1.70;0.70;;;7.50;90.30;;;;;;4994563;28;20062;-30
2023/11/11 08:18:15;;;;;;;2.00;0.70;;;7.50;90.20;;;;;;4994064;28;20113;-31
2023/11/11 08:20:42;;;;;;;0.70;0.65;;;7.60;90.20;;;;;;4994295;28;20022;-32
2023/11/11 08:23:07;;;;;;;0.88;0.70;;;7.70;90.20;;;;;;4993935;28;20399;-32
2023/11/11 08:25:33;;;;;;;1.67;0.95;;;7.80;90.30;;;;;;4992356;28;20021;-31
2023/11/11 08:27:59;;;;;;;1.67;0.68;;;7.80;90.00;;;;;;4993829;28;20388;-32
2023/11/11 08:30:24;;;;;;;1.08;0.88;;;7.90;89.90;;;;;;4992840;28;20034;-32
2023/11/11 08:32:50;;;;;;;1.30;0.80;;;8.00;89.80;;;;;;4993821;28;20502;-32
2023/11/11 08:35:16;;;;;;;0.90;0.73;;;8.00;89.60;;;;;;4993727;28;20023;-32
2023/11/11 08:37:45;;;;;;;0.60;0.60;;;8.10;89.50;;;;;;4993604;28;20022;-33
2023/11/11 08:40:12;;;;;;;2.22;0.70;;;8.10;89.40;;;;;;4993533;28;20057;-32
2023/11/11 08:42:39;;;;;;;2.38;0.57;;;8.10;89.20;;;;;;4993613;28;20030;-33
2023/11/11 08:45:09;;;;;;;2.30;0.82;;;8.20;89.00;;;;;;4993550;28;20113;-31
2023/11/11 08:47:34;;;;;;;1.65;0.80;;;8.20;88.80;;;;;;4993391;28;20426;-31
2023/11/11 08:50:03;;;;;;;1.42;0.40;;;8.20;88.70;;;;;;4993375;28;20061;-31
2023/11/11 08:52:28;;;;;;;1.65;0.70;;;8.20;88.80;;;;;;4993852;28;20030;-32
2023/11/11 08:54:54;;;;;;;1.38;0.60;;;8.20;88.70;;;;;;4993213;28;20474;-33
2023/11/11 08:57:19;;;;;;;2.50;0.70;;;8.10;88.80;;;;;;4993454;28;20053;-33
2023/11/11 08:59:45;;;;;;;0.75;0.50;;;8.10;88.80;;;;;;4993460;28;20031;-33
2023/11/11 09:02:11;;;;;;;0.88;0.70;;;8.10;88.90;;;;;;4993499;28;20113;-32
2023/11/11 09:04:37;;;;;;;0.73;0.40;;;8.10;89.00;;;;;;4993488;28;20359;-31
2023/11/11 09:07:03;;;;;;;2.05;0.85;;;8.20;89.00;;;;;;4992879;28;20042;-31
2023/11/11 09:09:29;;;;;;;1.98;0.80;;;8.30;89.00;;;;;;4993000;28;20255;-33
2023/11/11 09:11:56;;;;;;;1.73;0.80;;;8.30;88.80;;;;;;4993187;28;20386;-31
2023/11/11 09:14:22;;;;;;;1.42;0.80;;;8.40;89.30;;;;;;4993280;28;20093;-32
2023/11/11 09:16:48;;;;;;;1.15;0.85;;;8.40;88.50;;;;;;4992867;28;20478;-32
2023/11/11 09:19:13;;;;;;;2.38;0.60;;;8.30;88.60;;;;;;4992848;28;20038;-31
2023/11/11 09:21:39;;;;;;;1.40;0.60;;;8.40;88.60;;;;;;4992911;28;20116;-32
2023/11/11 09:24:08;;;;;;;1.23;0.50;;;8.40;88.40;;;;;;4992732;28;20482;-32
2023/11/11 09:26:35;;;;;;;1.33;0.70;;;8.40;88.20;;;;;;4992580;28;20023;-31
2023/11/11 09:29:00;;;;;;;1.33;0.65;;;8.50;88.30;;;;;;4992556;28;20057;-31
2023/11/11 09:31:29;;;;;;;1.98;0.90;;;8.60;88.40;;;;;;4992557;28;20521;-33
2023/11/11 09:34:00;;;;;;;0.85;0.70;;;8.70;88.30;;;;;;4992533;28;20100;-32
2023/11/11 09:36:29;;;;;;;1.50;0.50;;;8.80;88.20;;;;;;4992756;28;20328;-33
2023/11/11 09:38:56;;;;;;;1.58;1.00;;;8.80;88.20;;;;;;4992604;28;20427;-33
2023/11/11 09:41:22;;;;;;;2.42;1.35;;;8.80;88.30;;;;;;4992509;28;20449;-32
2023/11/11 09:43:49;;;;;;;3.35;1.00;;;8.80;88.30;;;;;;4992296;28;20034;-32
2023/11/11 09:46:16;;;;;;;3.08;1.55;;;8.80;88.50;;;;;;4993226;28;20498;-33
2023/11/11 09:48:42;;;;;;;2.10;1.00;;;8.70;88.60;;;;;;4992627;28;20389;-32
2023/11/11 09:51:09;;;;;;;1.10;0.93;;;8.70;88.70;;;;;;4992454;28;20486;-33
2023/11/11 09:53:36;;;;;;;3.05;1.13;;;8.60;88.90;;;;;;4992451;28;20081;-33
2023/11/11 09:56:05;;;;;;;4.95;1.52;;;8.60;89.10;;;;;;4992393;28;20046;-32
2023/11/11 09:58:31;;;;;;;1.75;1.00;;;8.50;89.10;;;;;;4992468;28;20424;-32
2023/11/11 10:00:57;;;;;;;2.83;1.20;;;8.50;89.20;;;;;;4992730;28;20041;-33
2023/11/11 10:03:23;;;;;;;1.90;1.33;;;8.60;89.30;;;;;;4992284;28;20070;-32
2023/11/11 10:05:49;;;;;;;3.45;1.40;;;8.60;89.30;;;;;;4992468;28;20030;-33
2023/11/11 10:08:14;;;;;;;2.85;1.40;;;8.60;89.20;;;;;;4992061;28;20077;-32
2023/11/11 10:10:41;;;;;;;2.33;1.77;;;8.70;89.20;;;;;;4992038;28;20066;-33
2023/11/11 10:13:07;;;;;;;3.70;2.17;;;8.70;89.10;;;;;;4992192;28;20027;-33
2023/11/11 10:15:32;;;;;;;4.32;2.35;;;8.70;89.00;;;;;;4992483;28;20101;-33
2023/11/11 10:18:00;;;;;;;3.20;2.60;;;8.80;89.10;;;;;;4990521;28;20018;-33
2023/11/11 10:20:30;;;;;;;5.38;2.90;;;8.80;89.10;;;;;;4992291;28;20426;-32
2023/11/11 10:22:56;;;;;;;4.70;2.90;;;8.90;89.10;;;;;;4992221;28;20037;-33
2023/11/11 10:25:22;;;;;;;5.65;2.80;;;8.90;89.10;;;;;;4992066;28;20034;-33
2023/11/11 10:27:53;;;;;;;3.65;2.58;;;9.00;89.10;;;;;;4991634;28;20049;-33
2023/11/11 10:30:24;;;;;;;3.65;2.67;;;9.00;89.00;;;;;;4992330;28;20427;-33
2023/11/11 10:32:53;;;;;;;5.60;3.10;;;9.10;88.80;;;;;;4992023;28;20138;-33
2023/11/11 10:35:20;;;;;;;6.72;3.35;;;9.10;88.80;;;;;;4990672;28;20109;-33
2023/11/11 10:37:47;;;;;;;6.60;3.83;;;9.20;88.80;;;;;;4992049;28;20061;-33
2023/11/11 10:40:15;;;;;;;7.53;3.67;;;9.20;88.70;;;;;;4991746;28;20037;-32
2023/11/11 10:42:46;;;;;;;8.00;3.22;;;9.40;88.30;;;;;;4992163;28;20034;-32
2023/11/11 10:45:15;;;;;;;6.53;3.53;;;9.40;87.90;;;;;;4991964;28;20058;-32
2023/11/11 10:47:44;;;;;;;6.35;2.92;;;9.30;87.70;;;;;;4991882;28;20025;-32
2023/11/11 10:50:11;;;;;;;7.57;3.10;;;9.30;87.70;;;;;;4992158;28;20486;-32
2023/11/11 10:52:38;;;;;;;7.30;3.25;;;9.20;87.90;;;;;;4993334;28;20386;-32
2023/11/11 10:55:07;;;;;;;6.03;3.40;;;9.20;88.00;;;;;;4995710;28;20022;-32
2023/11/11 10:57:33;;;;;;;8.45;3.13;;;9.20;88.00;;;;;;4995830;28;20115;-32
2023/11/11 10:59:59;;;;;;;7.22;3.42;;;9.10;88.10;;;;;;4995510;28;20062;-32
2023/11/11 11:02:26;;;;;;;4.32;2.80;;;9.10;88.20;;;;;;4994719;28;20417;-32
2023/11/11 11:04:57;;;;;;;5.65;2.63;;;9.20;88.20;;;;;;4995436;28;20565;-32
2023/11/11 11:07:33;;;;;;;5.10;2.90;;;9.30;88.00;;;;;;4995536;28;20097;-32
2023/11/11 11:10:32;;;;;;;4.78;3.03;;;9.40;87.90;;;;;;4995317;28;20029;-33
2023/11/11 11:13:09;;;;;;;5.10;2.85;;;9.40;87.50;;;;;;4995097;28;20074;-33
2023/11/11 11:15:44;;;;;;;5.32;2.97;;;9.40;87.50;;;;;;4995569;28;20027;-32
2023/11/11 11:18:10;;;;;;;4.35;2.53;;;9.40;87.60;;;;;;4995364;28;20433;-33
2023/11/11 11:20:37;;;;;;;5.35;2.88;;;9.40;87.70;;;;;;4995130;28;20509;-33
2023/11/11 11:23:04;;;;;;;5.03;2.53;;;9.40;87.40;;;;;;4995154;28;20242;-32
2023/11/11 11:25:34;;;;;;;6.38;2.42;;;9.50;87.50;;;;;;4994872;28;20114;-33
2023/11/11 11:28:11;;;;;;;4.88;2.40;;;9.50;87.40;;;;;;4994585;28;20057;-34
2023/11/11 11:30:58;;;;;;;6.00;2.75;;;9.50;87.40;;;;;;4995293;28;20093;-32
2023/11/11 11:33:24;;;;;;;6.25;2.40;;;9.60;87.40;;;;;;4994808;28;20041;-31
2023/11/11 11:35:56;;;;;;;8.25;2.60;;;9.60;87.30;;;;;;4995034;28;20341;-33
2023/11/11 11:38:28;;;;;;;8.15;2.65;;;9.60;87.10;;;;;;4995038;28;20038;-32
2023/11/11 11:41:07;;;;;;;4.95;2.05;;;9.70;86.90;;;;;;4995123;28;20113;-32
2023/11/11 11:43:34;;;;;;;3.42;2.10;;;9.70;87.00;;;;;;4994746;28;20058;-32
2023/11/11 11:46:01;;;;;;;4.25;2.42;;;9.80;87.00;;;;;;4994561;28;20555;-32
2023/11/11 11:48:31;;;;;;;3.95;2.15;;;9.80;86.80;;;;;;4994828;28;20033;-34
2023/11/11 11:51:12;;;;;;;3.83;2.10;;;9.80;86.70;;;;;;4994664;28;20035;-32
2023/11/11 11:53:41;;;;;;;3.80;2.10;;;9.80;86.70;;;;;;4994627;28;20041;-32
2023/11/11 11:56:11;;;;;;;5.78;1.80;;;9.90;86.70;;;;;;4994688;28;20101;-33
2023/11/11 11:58:50;;;;;;;5.25;2.08;;;9.90;86.70;;;;;;4994687;28;20100;-33
2023/11/11 12:01:26;;;;;;;3.95;2.45;;;9.90;86.50;;;;;;4994694;28;20034;-34
2023/11/11 12:03:53;;;;;;;2.75;1.80;;;10.00;86.00;;;;;;4994502;28;20382;-33
2023/11/11 12:06:19;;;;;;;4.10;1.50;;;10.00;85.60;;;;;;4994424;28;20031;-33
2023/11/11 12:08:54;;;;;;;2.70;1.20;;;10.00;85.30;;;;;;4994123;28;20346;-33
2023/11/11 12:11:25;;;;;;;4.03;1.70;;;9.90;85.20;;;;;;4994424;28;20034;-33
2023/11/11 12:13:51;;;;;;;3.30;1.20;;;9.90;85.00;;;;;;4994260;28;20037;-33
2023/11/11 12:16:17;;;;;;;3.17;1.10;;;9.80;85.10;;;;;;4994404;28;20084;-32
2023/11/11 12:18:43;;;;;;;3.83;1.10;;;9.80;85.10;;;;;;4993976;28;20038;-32
2023/11/11 12:21:09;;;;;;;2.58;1.02;;;9.90;85.20;;;;;;4992913;28;20038;-33
2023/11/11 12:23:34;;;;;;;2.67;1.15;;;9.90;85.00;;;;;;4993938;28;20371;-32
2023/11/11 12:26:01;;;;;;;3.03;1.40;;;9.90;84.90;;;;;;4993815;28;20026;-32
2023/11/11 12:28:30;;;;;;;2.83;1.08;;;10.00;84.60;;;;;;4993768;28;20046;-33
2023/11/11 12:31:05;;;;;;;2.40;1.30;;;10.00;84.50;;;;;;4994164;28;20034;-32
2023/11/11 12:33:32;;;;;;;2.50;1.15;;;10.00;84.20;;;;;;4994162;28;20089;-33
2023/11/11 12:35:59;;;;;;;4.50;1.30;;;10.00;84.20;;;;;;4993782;28;20045;-32
2023/11/11 12:38:30;;;;;;;4.40;1.80;;;10.00;84.10;;;;;;4993823;28;20105;-32
2023/11/11 12:40:59;;;;;;;4.03;1.30;;;10.00;83.90;;;;;;4993688;28;20030;-32
2023/11/11 12:43:26;;;;;;;3.78;1.20;;;10.10;83.70;;;;;;4993832;28;20023;-31
2023/11/11 12:45:54;;;;;;;4.28;1.33;;;10.10;84.00;;;;;;4993879;28;20030;-31
2023/11/11 12:48:22;;;;;;;3.85;1.33;;;10.10;84.10;;;;;;4993798;28;20552;-33
2023/11/11 12:50:48;;;;;;;2.50;1.40;;;10.10;84.10;;;;;;4993701;28;20022;-42
2023/11/11 12:53:15;;;;;;;3.65;1.50;;;10.20;84.10;;;;;;4993322;28;20034;-32
2023/11/11 12:55:42;;;;;;;1.52;1.20;;;10.20;84.10;;;;;;4993863;28;20533;-31